West Lafayette, Indiana
Current Conditions -  °F | °C
As of 11:54 AM on Monday 24 Nov 2014 (Local Time) from KLAF Reporting Station
Overcast Overcast  
Wind Chill: 25°   Ceiling: 1700
Heat Index: 36°   Visibility: 10mi
Dew Point: 32°   Wind: 21mph
Humidity: 86%   Direction: 250°WSW
Pressure: 29.47"   Gusts: 35mph
Location:  40.43°N, 86.91°W
Report Text: KLAF 241654Z 25018G30KT 10SM BKN017 OVC023 02/00 A2947 RMK AO2 PK WND 25036/1618 RAE24 PRESRR SLP981 P0000 T00220000
Loading
Personal Weather Stations






























Interactive Weather Map New forecast layout! Learn more

10-Day Weather Forecast

Advertisements
Track Severe Weather on mobile